Time;durP1;ratioP1;P1;durP2;ratioP2;P2;SDS_P1;SDS_P2;PMS_P1;PMS_P2;Temp;Humidity;BMP_temperature;BMP_pressure;BME280_temperature;BME280_humidity;BME280_pressure;Samples;Min_cycle;Max_cycle;Signal;HPM_P1;HPM_P2
2021/09/01 00:00:10;;;;;;;5.45;3.97;;;;;;;;;;4899841;29;20195;-84
2021/09/01 00:02:37;;;;;;;3.25;2.95;;;;;;;;;;4899678;29;20709;-82
2021/09/01 00:05:07;;;;;;;7.63;3.78;;;;;;;;;;4899448;29;20565;-83
2021/09/01 00:07:36;;;;;;;5.45;3.17;;;;;;;;;;4899917;29;20200;-83
2021/09/01 00:10:03;;;;;;;3.00;2.58;;;;;;;;;;4898903;29;20568;-82
2021/09/01 00:12:32;;;;;;;6.88;3.47;;;;;;;;;;4899734;29;20203;-83
2021/09/01 00:15:00;;;;;;;5.43;3.70;;;;;;;;;;4899758;29;20195;-83
2021/09/01 00:17:27;;;;;;;2.95;2.72;;;;;;;;;;4899513;29;20187;-84
2021/09/01 00:19:55;;;;;;;3.28;2.97;;;;;;;;;;4899554;29;20183;-84
2021/09/01 00:22:22;;;;;;;4.38;3.58;;;;;;;;;;4899724;29;20208;-83
2021/09/01 00:24:51;;;;;;;5.53;3.67;;;;;;;;;;4899443;29;20211;-84
2021/09/01 00:27:18;;;;;;;5.22;4.03;;;;;;;;;;4899525;29;20191;-84
2021/09/01 00:29:46;;;;;;;4.55;3.17;;;;;;;;;;4899399;29;20184;-82
2021/09/01 00:32:14;;;;;;;11.52;4.13;;;;;;;;;;4899996;29;20231;-83
2021/09/01 00:34:41;;;;;;;5.68;4.35;;;;;;;;;;4899573;29;20191;-85
2021/09/01 00:37:08;;;;;;;5.13;3.28;;;;;;;;;;4899999;29;20562;-84
2021/09/01 00:39:36;;;;;;;6.55;3.25;;;;;;;;;;4899872;29;20211;-83
2021/09/01 00:42:06;;;;;;;4.85;3.60;;;;;;;;;;4899924;29;20238;-84
2021/09/01 00:44:34;;;;;;;5.35;3.63;;;;;;;;;;4899563;29;20207;-84
2021/09/01 00:47:02;;;;;;;7.15;3.30;;;;;;;;;;4899389;29;20188;-84
2021/09/01 00:49:30;;;;;;;5.10;3.47;;;;;;;;;;4899470;29;20213;-85
2021/09/01 00:51:58;;;;;;;6.40;3.72;;;;;;;;;;4899505;29;20235;-84
2021/09/01 00:54:30;;;;;;;4.22;3.30;;;;;;;;;;4899958;29;20195;-84
2021/09/01 00:57:01;;;;;;;7.22;4.30;;;;;;;;;;4899608;29;20184;-85
2021/09/01 00:59:33;;;;;;;5.30;4.05;;;;;;;;;;4901524;29;20223;-83
2021/09/01 01:02:02;;;;;;;5.50;3.95;;;;;;;;;;4902059;29;20235;-82
2021/09/01 01:04:31;;;;;;;5.72;3.63;;;;;;;;;;4901396;29;20203;-83
2021/09/01 01:07:00;;;;;;;4.38;3.67;;;;;;;;;;4899196;29;20203;-83
2021/09/01 01:09:28;;;;;;;4.72;3.80;;;;;;;;;;4899374;29;20184;-85
2021/09/01 01:12:05;;;;;;;4.32;3.63;;;;;;;;;;4905731;23;20236;-83
2021/09/01 01:14:39;;;;;;;4.65;3.33;;;;;;;;;;4878193;29;20196;-82
2021/09/01 01:17:08;;;;;;;5.57;3.55;;;;;;;;;;4878274;29;20243;-83
2021/09/01 01:19:40;;;;;;;6.35;4.05;;;;;;;;;;4877926;29;20212;-83
2021/09/01 01:22:09;;;;;;;3.92;3.50;;;;;;;;;;4877720;29;20231;-82
2021/09/01 01:24:52;;;;;;;5.05;3.90;;;;;;;;;;4877281;29;20596;-82
2021/09/01 01:27:35;;;;;;;4.25;3.33;;;;;;;;;;4877517;29;20559;-82
2021/09/01 01:30:13;;;;;;;4.72;3.80;;;;;;;;;;4878199;29;20211;-83
2021/09/01 01:32:43;;;;;;;5.45;3.90;;;;;;;;;;4877887;29;20207;-83
2021/09/01 01:35:11;;;;;;;3.63;3.30;;;;;;;;;;4877327;29;20196;-83
2021/09/01 01:37:41;;;;;;;4.75;3.10;;;;;;;;;;4877684;29;20216;-83
2021/09/01 01:40:10;;;;;;;4.50;3.67;;;;;;;;;;4896264;29;20215;-82
2021/09/01 01:42:42;;;;;;;5.32;3.67;;;;;;;;;;4896872;29;20227;-83
2021/09/01 01:45:12;;;;;;;5.55;3.83;;;;;;;;;;4895515;29;20180;-82
2021/09/01 01:47:39;;;;;;;6.82;3.70;;;;;;;;;;4896082;29;20646;-83
2021/09/01 01:50:08;;;;;;;6.20;4.05;;;;;;;;;;4896268;29;20210;-83
2021/09/01 01:52:36;;;;;;;5.43;4.90;;;;;;;;;;4896430;29;20229;-83
2021/09/01 01:55:05;;;;;;;10.50;4.88;;;;;;;;;;4895921;29;20218;-83
2021/09/01 01:57:33;;;;;;;7.78;4.60;;;;;;;;;;4896514;29;20191;-83
2021/09/01 02:00:02;;;;;;;4.63;3.88;;;;;;;;;;4895940;29;20222;-83
2021/09/01 02:02:30;;;;;;;4.05;3.65;;;;;;;;;;4896434;29;20238;-82
2021/09/01 02:04:58;;;;;;;4.25;3.17;;;;;;;;;;4897432;29;20274;-83
2021/09/01 02:07:26;;;;;;;4.20;3.22;;;;;;;;;;4899373;29;20574;-83
2021/09/01 02:09:53;;;;;;;7.15;4.20;;;;;;;;;;4899422;29;20198;-83
2021/09/01 02:12:21;;;;;;;5.88;4.40;;;;;;;;;;4898589;29;20243;-84
2021/09/01 02:14:49;;;;;;;6.20;3.88;;;;;;;;;;4899730;29;20195;-83
2021/09/01 02:17:18;;;;;;;4.40;4.00;;;;;;;;;;4899806;29;20199;-83
2021/09/01 02:19:45;;;;;;;4.72;3.80;;;;;;;;;;4899473;29;20211;-83
2021/09/01 02:22:13;;;;;;;4.82;3.65;;;;;;;;;;4899614;29;20230;-83
2021/09/01 02:24:40;;;;;;;4.30;3.83;;;;;;;;;;4899348;29;20213;-83
2021/09/01 02:27:08;;;;;;;7.88;4.63;;;;;;;;;;4898967;29;20191;-82
2021/09/01 02:29:35;;;;;;;4.68;3.75;;;;;;;;;;4900326;29;20210;-83
2021/09/01 02:32:03;;;;;;;6.53;3.97;;;;;;;;;;4899647;29;20223;-83
2021/09/01 02:34:32;;;;;;;4.68;3.25;;;;;;;;;;4899575;29;20192;-82
2021/09/01 02:36:59;;;;;;;6.93;4.30;;;;;;;;;;4898966;29;20207;-83
2021/09/01 02:39:27;;;;;;;4.88;3.20;;;;;;;;;;4899425;29;20218;-83
2021/09/01 02:41:55;;;;;;;4.68;3.20;;;;;;;;;;4899113;29;20222;-83
2021/09/01 02:44:22;;;;;;;5.25;3.60;;;;;;;;;;4897987;29;20658;-83
2021/09/01 02:46:50;;;;;;;5.78;4.07;;;;;;;;;;4897231;29;20211;-82
2021/09/01 02:49:17;;;;;;;9.05;4.50;;;;;;;;;;4898912;29;20195;-82
2021/09/01 02:51:46;;;;;;;4.80;3.38;;;;;;;;;;4898715;29;20231;-83
2021/09/01 02:54:14;;;;;;;5.75;3.88;;;;;;;;;;4898658;29;20211;-83
2021/09/01 02:56:41;;;;;;;3.72;3.38;;;;;;;;;;4899017;29;20196;-82
2021/09/01 02:59:09;;;;;;;3.42;3.10;;;;;;;;;;4898753;29;20214;-83
2021/09/01 03:01:36;;;;;;;4.15;3.75;;;;;;;;;;4898638;29;20233;-83
2021/09/01 03:04:04;;;;;;;4.03;3.40;;;;;;;;;;4899405;29;20202;-83
2021/09/01 03:06:31;;;;;;;4.97;4.45;;;;;;;;;;4898134;29;20191;-83
2021/09/01 03:09:00;;;;;;;2.78;2.50;;;;;;;;;;4898014;29;20215;-83
2021/09/01 03:11:27;;;;;;;6.47;3.40;;;;;;;;;;4897426;29;20242;-83
2021/09/01 03:13:55;;;;;;;4.43;3.10;;;;;;;;;;4898427;29;20210;-83
2021/09/01 03:16:22;;;;;;;3.90;3.50;;;;;;;;;;4897027;29;20192;-83
2021/09/01 03:18:50;;;;;;;4.63;4.20;;;;;;;;;;4897747;29;20192;-83
2021/09/01 03:21:17;;;;;;;5.60;3.88;;;;;;;;;;4897884;29;20231;-83
2021/09/01 03:23:45;;;;;;;3.92;3.60;;;;;;;;;;4898611;29;20196;-83
2021/09/01 03:26:14;;;;;;;3.17;2.40;;;;;;;;;;4899435;29;20213;-84
2021/09/01 03:28:42;;;;;;;4.28;2.92;;;;;;;;;;4899361;29;20207;-83
2021/09/01 03:31:09;;;;;;;3.35;2.30;;;;;;;;;;4898424;29;20227;-83
2021/09/01 03:33:37;;;;;;;4.60;2.72;;;;;;;;;;4898710;29;20564;-83
2021/09/01 03:36:04;;;;;;;5.10;3.53;;;;;;;;;;4898369;29;20210;-83
2021/09/01 03:38:32;;;;;;;4.68;3.42;;;;;;;;;;4898405;29;20190;-84
2021/09/01 03:40:59;;;;;;;4.45;3.83;;;;;;;;;;4897977;29;20238;-82
2021/09/01 03:43:28;;;;;;;5.53;3.70;;;;;;;;;;4898409;29;20187;-82
2021/09/01 03:45:56;;;;;;;3.72;3.42;;;;;;;;;;4897489;29;20199;-84
2021/09/01 03:48:23;;;;;;;3.38;2.83;;;;;;;;;;4897815;29;20223;-83
2021/09/01 03:50:51;;;;;;;4.43;2.95;;;;;;;;;;4897936;29;20227;-83
2021/09/01 03:53:20;;;;;;;4.50;3.30;;;;;;;;;;4897950;29;20234;-83
2021/09/01 03:55:47;;;;;;;3.83;3.25;;;;;;;;;;4897781;29;20191;-83
2021/09/01 03:58:15;;;;;;;5.80;4.20;;;;;;;;;;4897006;29;20210;-83
2021/09/01 04:00:44;;;;;;;4.90;3.45;;;;;;;;;;4897472;29;20298;-83
2021/09/01 04:03:12;;;;;;;4.78;3.78;;;;;;;;;;4897512;29;20207;-82
2021/09/01 04:05:39;;;;;;;3.80;2.83;;;;;;;;;;4897545;29;20286;-83
2021/09/01 04:08:07;;;;;;;5.22;3.08;;;;;;;;;;4897696;29;20207;-83
2021/09/01 04:10:35;;;;;;;5.90;3.60;;;;;;;;;;4897656;29;20234;-83
2021/09/01 04:13:02;;;;;;;4.32;2.95;;;;;;;;;;4897810;29;20211;-84
2021/09/01 04:15:30;;;;;;;3.95;2.72;;;;;;;;;;4896723;29;20234;-83
2021/09/01 04:17:58;;;;;;;3.75;2.80;;;;;;;;;;4897644;29;20201;-83
2021/09/01 04:20:26;;;;;;;3.67;3.17;;;;;;;;;;4897195;29;20693;-83
2021/09/01 04:22:53;;;;;;;6.05;3.20;;;;;;;;;;4897794;29;20658;-83
2021/09/01 04:25:21;;;;;;;5.20;3.45;;;;;;;;;;4897277;29;20199;-83
2021/09/01 04:27:48;;;;;;;5.38;3.25;;;;;;;;;;4897004;29;20274;-83
2021/09/01 04:30:16;;;;;;;3.88;2.80;;;;;;;;;;4896521;29;20213;-83
2021/09/01 04:32:43;;;;;;;3.92;3.35;;;;;;;;;;4896839;29;20669;-84
2021/09/01 04:35:12;;;;;;;4.07;3.38;;;;;;;;;;4896114;29;20217;-83
2021/09/01 04:37:40;;;;;;;2.55;2.33;;;;;;;;;;4897585;29;20580;-83
2021/09/01 04:40:09;;;;;;;4.93;3.88;;;;;;;;;;4897689;29;20201;-82
2021/09/01 04:42:37;;;;;;;3.38;2.88;;;;;;;;;;4897941;29;20249;-83
2021/09/01 04:45:05;;;;;;;4.50;3.05;;;;;;;;;;4896827;29;20207;-83
2021/09/01 04:47:34;;;;;;;5.28;3.40;;;;;;;;;;4897379;29;20620;-82
2021/09/01 04:50:01;;;;;;;4.05;2.85;;;;;;;;;;4897072;29;20198;-83
2021/09/01 04:52:30;;;;;;;4.10;2.92;;;;;;;;;;4897208;29;20227;-83
2021/09/01 04:54:59;;;;;;;3.50;3.00;;;;;;;;;;4896878;29;20206;-83
2021/09/01 04:57:26;;;;;;;3.85;3.00;;;;;;;;;;4897151;29;20237;-83
2021/09/01 04:59:53;;;;;;;3.83;3.45;;;;;;;;;;4897206;29;20258;-83
2021/09/01 05:02:21;;;;;;;3.13;2.83;;;;;;;;;;4897246;29;20242;-81
2021/09/01 05:04:48;;;;;;;6.95;4.38;;;;;;;;;;4896662;29;20308;-82
2021/09/01 05:07:16;;;;;;;7.38;4.05;;;;;;;;;;4897187;29;20590;-84
2021/09/01 05:09:45;;;;;;;5.50;3.53;;;;;;;;;;4897651;29;20229;-82
2021/09/01 05:12:12;;;;;;;7.40;2.85;;;;;;;;;;4896425;29;20238;-85
2021/09/01 05:14:40;;;;;;;2.97;2.53;;;;;;;;;;4896575;29;20188;-82
2021/09/01 05:17:07;;;;;;;4.00;3.17;;;;;;;;;;4897147;29;20187;-81
2021/09/01 05:19:35;;;;;;;5.50;3.00;;;;;;;;;;4897185;29;20676;-84
2021/09/01 05:22:07;;;;;;;4.57;2.70;;;;;;;;;;4896576;29;20226;-82
2021/09/01 05:24:43;;;;;;;4.25;3.85;;;;;;;;;;4896507;29;20195;-83
2021/09/01 05:27:18;;;;;;;4.07;3.65;;;;;;;;;;4897289;29;20199;-84
2021/09/01 05:29:48;;;;;;;4.45;2.88;;;;;;;;;;4896621;29;20262;-83
2021/09/01 05:32:20;;;;;;;4.30;3.50;;;;;;;;;;4896802;29;20227;-84
2021/09/01 05:34:49;;;;;;;4.65;3.60;;;;;;;;;;4896352;29;20183;-83
2021/09/01 05:37:17;;;;;;;5.30;3.55;;;;;;;;;;4896640;29;20206;-84
2021/09/01 05:43:28;;;;;;;6.15;3.65;;;;;;;;;;4901024;29;20266;-84
2021/09/01 05:45:56;;;;;;;8.02;4.03;;;;;;;;;;4900287;29;20198;-84
2021/09/01 05:48:24;;;;;;;5.90;3.80;;;;;;;;;;4901068;29;20195;-85
2021/09/01 05:50:54;;;;;;;4.35;3.80;;;;;;;;;;4899106;29;20235;-84
2021/09/01 05:53:22;;;;;;;5.82;3.83;;;;;;;;;;4882230;29;20678;-84
2021/09/01 05:55:52;;;;;;;4.57;3.40;;;;;;;;;;4881661;29;20188;-83
2021/09/01 05:58:21;;;;;;;3.30;2.97;;;;;;;;;;4881100;29;20200;-84
2021/09/01 06:00:54;;;;;;;7.03;3.80;;;;;;;;;;4881631;29;20239;-84
2021/09/01 06:03:27;;;;;;;3.15;2.80;;;;;;;;;;4881420;29;20557;-84
2021/09/01 06:05:57;;;;;;;5.05;3.35;;;;;;;;;;4881110;29;20578;-84
2021/09/01 06:08:30;;;;;;;4.78;3.38;;;;;;;;;;4881317;29;20184;-83
2021/09/01 06:11:00;;;;;;;6.85;3.33;;;;;;;;;;4881681;29;20387;-84
2021/09/01 06:13:28;;;;;;;3.92;3.20;;;;;;;;;;4881486;29;20200;-85
2021/09/01 06:15:57;;;;;;;4.70;3.33;;;;;;;;;;4898112;29;20219;-85
2021/09/01 06:18:25;;;;;;;3.67;3.20;;;;;;;;;;4899980;29;20187;-83
2021/09/01 06:20:54;;;;;;;5.38;3.53;;;;;;;;;;4899945;29;20226;-84
2021/09/01 06:23:22;;;;;;;4.55;3.78;;;;;;;;;;4900453;29;20596;-86
2021/09/01 06:25:50;;;;;;;6.22;3.90;;;;;;;;;;4899233;29;20213;-85
2021/09/01 06:28:17;;;;;;;5.93;3.45;;;;;;;;;;4899543;29;20194;-84
2021/09/01 06:30:45;;;;;;;5.75;3.50;;;;;;;;;;4899590;29;20235;-84
2021/09/01 06:33:13;;;;;;;4.47;3.13;;;;;;;;;;4899105;29;20198;-84
2021/09/01 06:35:42;;;;;;;7.32;4.07;;;;;;;;;;4898726;29;20232;-84
2021/09/01 06:38:10;;;;;;;5.95;3.58;;;;;;;;;;4898664;29;20193;-84
2021/09/01 06:40:37;;;;;;;4.68;4.20;;;;;;;;;;4898826;29;20238;-83
2021/09/01 06:43:05;;;;;;;4.75;3.75;;;;;;;;;;4898656;29;20641;-84
2021/09/01 06:45:32;;;;;;;4.35;3.95;;;;;;;;;;4898920;29;20206;-84
2021/09/01 06:48:00;;;;;;;5.35;3.65;;;;;;;;;;4898896;29;20275;-84
2021/09/01 06:50:29;;;;;;;4.78;3.80;;;;;;;;;;4898550;29;20206;-85
2021/09/01 06:52:57;;;;;;;4.50;3.40;;;;;;;;;;4882272;29;20572;-85
2021/09/01 06:55:25;;;;;;;4.53;3.65;;;;;;;;;;4884441;29;20214;-84
2021/09/01 06:57:54;;;;;;;6.32;3.53;;;;;;;;;;4899162;29;20199;-86
2021/09/01 07:00:22;;;;;;;7.82;4.55;;;;;;;;;;4900188;29;20195;-86
2021/09/01 07:02:55;;;;;;;4.35;3.60;;;;;;;;;;4900334;29;20831;-87
2021/09/01 07:05:31;;;;;;;10.68;5.65;;;;;;;;;;4898890;29;20195;-87
2021/09/01 07:07:59;;;;;;;5.75;4.07;;;;;;;;;;4897777;29;20211;-83
2021/09/01 07:10:26;;;;;;;7.18;4.55;;;;;;;;;;4901518;29;20206;-83
2021/09/01 07:12:54;;;;;;;5.72;3.45;;;;;;;;;;4919344;29;20195;-83
2021/09/01 07:15:21;;;;;;;7.28;4.18;;;;;;;;;;4920156;29;20198;-84
2021/09/01 07:17:49;;;;;;;10.77;5.80;;;;;;;;;;4907626;29;20203;-84
2021/09/01 07:20:18;;;;;;;6.57;4.93;;;;;;;;;;4908513;29;20285;-84
2021/09/01 07:22:47;;;;;;;7.28;4.63;;;;;;;;;;4918732;29;20743;-84
2021/09/01 07:25:14;;;;;;;6.72;5.05;;;;;;;;;;4918758;29;20203;-84
2021/09/01 07:27:42;;;;;;;7.15;4.22;;;;;;;;;;4918456;29;20202;-84
2021/09/01 07:30:10;;;;;;;4.07;3.70;;;;;;;;;;4919300;29;20221;-84
2021/09/01 07:32:38;;;;;;;4.80;4.30;;;;;;;;;;4919043;29;20226;-83
2021/09/01 07:35:06;;;;;;;4.38;3.28;;;;;;;;;;4920231;29;20205;-84
2021/09/01 07:37:34;;;;;;;6.10;4.10;;;;;;;;;;4919326;29;20191;-83
2021/09/01 07:40:03;;;;;;;7.28;4.70;;;;;;;;;;4918987;29;20195;-84
2021/09/01 07:42:30;;;;;;;7.78;4.50;;;;;;;;;;4919783;29;20600;-85
2021/09/01 07:44:58;;;;;;;5.40;4.05;;;;;;;;;;4918741;29;20179;-82
2021/09/01 07:47:26;;;;;;;4.32;3.80;;;;;;;;;;4918292;29;20249;-83
2021/09/01 07:49:53;;;;;;;4.55;4.10;;;;;;;;;;4910460;29;20203;-82
2021/09/01 07:52:20;;;;;;;5.00;4.03;;;;;;;;;;4914218;29;20234;-83
2021/09/01 07:54:48;;;;;;;6.75;5.20;;;;;;;;;;4919164;29;20206;-83
2021/09/01 07:57:17;;;;;;;7.00;4.70;;;;;;;;;;4919097;29;20186;-83
2021/09/01 07:59:44;;;;;;;6.72;3.83;;;;;;;;;;4918438;29;20206;-84
2021/09/01 08:02:12;;;;;;;4.70;4.05;;;;;;;;;;4917934;29;20585;-83
2021/09/01 08:04:41;;;;;;;4.50;4.13;;;;;;;;;;4918480;29;20201;-82
2021/09/01 08:07:09;;;;;;;7.45;4.65;;;;;;;;;;4917902;29;20190;-83
2021/09/01 08:09:36;;;;;;;3.97;3.55;;;;;;;;;;4918442;29;20187;-83
2021/09/01 08:12:04;;;;;;;5.03;4.50;;;;;;;;;;4903888;29;20238;-83
2021/09/01 08:14:34;;;;;;;4.10;3.50;;;;;;;;;;4898353;29;20207;-84
2021/09/01 08:17:01;;;;;;;4.50;3.55;;;;;;;;;;4899484;29;20211;-84
2021/09/01 08:19:29;;;;;;;7.15;4.75;;;;;;;;;;4898756;29;20199;-82
2021/09/01 08:21:56;;;;;;;4.25;3.85;;;;;;;;;;4898626;29;20225;-83
2021/09/01 08:24:24;;;;;;;6.35;4.63;;;;;;;;;;4898562;29;20219;-82
2021/09/01 08:26:52;;;;;;;4.97;4.20;;;;;;;;;;4898993;29;20202;-82
2021/09/01 08:29:19;;;;;;;5.55;3.85;;;;;;;;;;4898546;29;20195;-83
2021/09/01 08:31:48;;;;;;;4.85;4.25;;;;;;;;;;4898453;29;20322;-84
2021/09/01 08:34:16;;;;;;;8.63;4.13;;;;;;;;;;4898379;29;20210;-83
2021/09/01 08:36:43;;;;;;;3.67;3.38;;;;;;;;;;4898700;29;20198;-83
2021/09/01 08:39:10;;;;;;;4.35;3.70;;;;;;;;;;4898570;29;20222;-83
2021/09/01 08:41:38;;;;;;;5.75;3.97;;;;;;;;;;4898715;29;20223;-84
2021/09/01 08:44:06;;;;;;;5.55;3.50;;;;;;;;;;4898321;29;20386;-83
2021/09/01 08:46:34;;;;;;;7.80;4.18;;;;;;;;;;4898744;29;20190;-84
2021/09/01 08:49:05;;;;;;;6.05;4.88;;;;;;;;;;4898475;29;20274;-84
2021/09/01 08:51:32;;;;;;;5.03;4.18;;;;;;;;;;4897932;29;20890;-84
2021/09/01 08:54:00;;;;;;;4.45;2.88;;;;;;;;;;4898640;29;20191;-84
2021/09/01 08:56:28;;;;;;;4.03;3.72;;;;;;;;;;4891482;29;20184;-84
2021/09/01 08:58:56;;;;;;;7.75;4.47;;;;;;;;;;4897875;29;20694;-85
2021/09/01 09:01:43;;;;;;;6.78;4.10;;;;;;;;;;4898209;29;20231;-84
2021/09/01 09:04:20;;;;;;;4.78;4.25;;;;;;;;;;4898758;29;20223;-84
2021/09/01 09:06:50;;;;;;;4.88;3.80;;;;;;;;;;4894530;29;20239;-83
2021/09/01 09:09:20;;;;;;;4.30;3.90;;;;;;;;;;4899816;29;20206;-84
2021/09/01 09:11:47;;;;;;;4.97;3.97;;;;;;;;;;4898981;29;20237;-83
2021/09/01 09:14:24;;;;;;;6.10;4.18;;;;;;;;;;4898070;29;20689;-84
2021/09/01 09:17:08;;;;;;;4.28;2.95;;;;;;;;;;4899418;29;20190;-84
2021/09/01 09:19:55;;;;;;;4.18;3.45;;;;;;;;;;4880637;29;20317;-84
2021/09/01 09:22:27;;;;;;;4.53;3.70;;;;;;;;;;4882673;29;20230;-85
2021/09/01 09:25:11;;;;;;;4.90;3.55;;;;;;;;;;4899367;29;20282;-83
2021/09/01 09:27:46;;;;;;;5.30;4.53;;;;;;;;;;4899247;29;20235;-84
2021/09/01 09:30:37;;;;;;;4.32;2.88;;;;;;;;;;4899220;29;20579;-85
2021/09/01 09:33:12;;;;;;;6.43;4.10;;;;;;;;;;4899030;29;20199;-84
2021/09/01 09:36:05;;;;;;;5.97;3.80;;;;;;;;;;4899015;29;20179;-85
2021/09/01 09:38:39;;;;;;;5.65;4.07;;;;;;;;;;4898087;29;20590;-85
2021/09/01 09:41:09;;;;;;;4.72;3.58;;;;;;;;;;4898351;29;20278;-84
2021/09/01 09:43:37;;;;;;;3.67;3.20;;;;;;;;;;4898318;29;20237;-84
2021/09/01 09:46:10;;;;;;;4.68;3.30;;;;;;;;;;4898351;29;20195;-85
2021/09/01 09:48:39;;;;;;;4.95;3.70;;;;;;;;;;4897944;29;20654;-84
2021/09/01 09:51:14;;;;;;;7.57;3.60;;;;;;;;;;4898066;29;20222;-85
2021/09/01 09:53:44;;;;;;;3.15;2.85;;;;;;;;;;4897981;29;20193;-86
2021/09/01 09:56:16;;;;;;;3.47;3.17;;;;;;;;;;4897784;29;20708;-84
2021/09/01 09:58:46;;;;;;;3.20;2.95;;;;;;;;;;4898344;29;20203;-85
2021/09/01 10:01:16;;;;;;;4.25;3.30;;;;;;;;;;4897720;29;20238;-85
2021/09/01 10:03:44;;;;;;;7.97;3.70;;;;;;;;;;4897258;29;20312;-85
2021/09/01 10:06:16;;;;;;;5.03;3.60;;;;;;;;;;4897883;29;20195;-85
2021/09/01 10:08:45;;;;;;;4.22;3.83;;;;;;;;;;4897781;29;20226;-85
2021/09/01 10:11:15;;;;;;;4.65;3.78;;;;;;;;;;4898919;29;20314;-85
2021/09/01 10:13:46;;;;;;;4.15;3.42;;;;;;;;;;4897384;29;20203;-85
2021/09/01 10:16:31;;;;;;;6.47;4.00;;;;;;;;;;4897412;29;20188;-84
2021/09/01 10:19:06;;;;;;;5.05;3.88;;;;;;;;;;4897465;29;20207;-85
2021/09/01 10:21:39;;;;;;;4.15;3.42;;;;;;;;;;4897842;29;20227;-85
2021/09/01 10:24:21;;;;;;;4.95;3.13;;;;;;;;;;4897772;29;20211;-85
2021/09/01 10:27:13;;;;;;;3.28;2.97;;;;;;;;;;4900348;29;20210;-85
2021/09/01 10:29:50;;;;;;;5.07;3.15;;;;;;;;;;4897087;29;20211;-86
2021/09/01 10:32:27;;;;;;;5.05;3.58;;;;;;;;;;4901041;29;20231;-85
2021/09/01 10:35:30;;;;;;;5.10;3.92;;;;;;;;;;4901182;29;20187;-85
2021/09/01 10:38:04;;;;;;;4.00;3.63;;;;;;;;;;4851694;29;20330;-85
2021/09/01 10:40:57;;;;;;;5.13;4.25;;;;;;;;;;4902910;29;20278;-85
2021/09/01 10:43:25;;;;;;;7.00;5.18;;;;;;;;;;4902086;29;20294;-85
2021/09/01 10:45:58;;;;;;;4.70;4.10;;;;;;;;;;4902461;29;20227;-84
2021/09/01 10:48:26;;;;;;;7.63;3.90;;;;;;;;;;4903063;29;20195;-85
2021/09/01 10:50:54;;;;;;;4.10;3.75;;;;;;;;;;4902789;29;20227;-85
2021/09/01 10:53:25;;;;;;;4.38;3.38;;;;;;;;;;4902479;29;20187;-84
2021/09/01 10:55:59;;;;;;;3.60;3.30;;;;;;;;;;4902677;29;20203;-85
2021/09/01 10:58:33;;;;;;;5.60;3.85;;;;;;;;;;4902355;29;20341;-85
2021/09/01 11:01:11;;;;;;;4.10;3.30;;;;;;;;;;4902102;29;20697;-84
2021/09/01 11:03:41;;;;;;;4.10;3.50;;;;;;;;;;4901786;29;20285;-84
2021/09/01 11:06:20;;;;;;;4.38;3.80;;;;;;;;;;4902008;29;20217;-84
2021/09/01 11:09:08;;;;;;;4.00;3.60;;;;;;;;;;4902720;29;20194;-85
2021/09/01 11:11:54;;;;;;;5.93;3.90;;;;;;;;;;4902426;29;20227;-84
2021/09/01 11:14:49;;;;;;;3.88;3.35;;;;;;;;;;4902116;29;20639;-85
2021/09/01 11:17:21;;;;;;;4.63;2.90;;;;;;;;;;4901616;29;20202;-83
2021/09/01 11:19:52;;;;;;;5.05;3.50;;;;;;;;;;4901873;29;20196;-84
2021/09/01 11:22:24;;;;;;;4.72;3.30;;;;;;;;;;4902102;29;20223;-85
2021/09/01 11:24:55;;;;;;;4.35;3.95;;;;;;;;;;4902180;29;20225;-85
2021/09/01 11:27:25;;;;;;;4.22;3.83;;;;;;;;;;4902423;29;20183;-85
2021/09/01 11:29:59;;;;;;;4.95;3.85;;;;;;;;;;4903029;29;20207;-85
2021/09/01 11:32:27;;;;;;;5.63;4.50;;;;;;;;;;4901969;29;20223;-85
2021/09/01 11:34:55;;;;;;;4.80;4.30;;;;;;;;;;4901846;29;20207;-84
2021/09/01 11:37:22;;;;;;;4.03;3.63;;;;;;;;;;4902010;29;20199;-86
2021/09/01 11:39:53;;;;;;;4.32;3.92;;;;;;;;;;4902512;29;20214;-85
2021/09/01 11:42:21;;;;;;;4.65;3.72;;;;;;;;;;4902688;29;20227;-85
2021/09/01 11:44:55;;;;;;;3.80;2.88;;;;;;;;;;4902975;29;20693;-84
2021/09/01 11:47:23;;;;;;;3.67;3.03;;;;;;;;;;4902357;29;20191;-84
2021/09/01 11:49:51;;;;;;;4.68;3.65;;;;;;;;;;4901981;29;20225;-84
2021/09/01 11:52:27;;;;;;;5.85;4.03;;;;;;;;;;4901465;29;20310;-85
2021/09/01 11:54:57;;;;;;;4.93;3.78;;;;;;;;;;4901084;29;20214;-84
2021/09/01 11:57:34;;;;;;;3.72;3.42;;;;;;;;;;4902292;29;20662;-83
2021/09/01 12:00:06;;;;;;;4.00;3.63;;;;;;;;;;4902004;29;20203;-83
2021/09/01 12:02:34;;;;;;;6.45;5.10;;;;;;;;;;4895139;29;20248;-84
2021/09/01 12:05:01;;;;;;;4.05;3.58;;;;;;;;;;4902228;29;20211;-85
2021/09/01 12:07:31;;;;;;;3.72;3.33;;;;;;;;;;4901726;29;20663;-85
2021/09/01 12:10:02;;;;;;;4.57;3.55;;;;;;;;;;4902440;29;20669;-85
2021/09/01 12:12:34;;;;;;;4.07;3.75;;;;;;;;;;4901264;29;20239;-83
2021/09/01 12:15:09;;;;;;;3.95;3.65;;;;;;;;;;4901787;29;20203;-85
2021/09/01 12:17:37;;;;;;;4.32;3.42;;;;;;;;;;4902208;29;20238;-84
2021/09/01 12:20:07;;;;;;;3.28;2.95;;;;;;;;;;4901330;29;20560;-84
2021/09/01 12:22:37;;;;;;;2.83;2.25;;;;;;;;;;4901501;29;20225;-85
2021/09/01 12:25:09;;;;;;;3.80;3.03;;;;;;;;;;4901085;29;20274;-84
2021/09/01 12:27:38;;;;;;;3.42;2.50;;;;;;;;;;4901432;29;20209;-85
2021/09/01 12:30:11;;;;;;;3.15;2.33;;;;;;;;;;4902208;29;20218;-84
2021/09/01 12:32:38;;;;;;;2.42;2.22;;;;;;;;;;4901764;29;20603;-84
2021/09/01 12:35:09;;;;;;;3.55;3.13;;;;;;;;;;4901448;29;20238;-85
2021/09/01 12:37:39;;;;;;;3.15;2.85;;;;;;;;;;4901252;29;20199;-84
2021/09/01 12:40:10;;;;;;;3.47;2.70;;;;;;;;;;4900779;29;20208;-84
2021/09/01 12:42:40;;;;;;;3.78;2.85;;;;;;;;;;4900831;29;20233;-84
2021/09/01 12:45:10;;;;;;;3.30;2.40;;;;;;;;;;4901180;29;20223;-84
2021/09/01 12:47:53;;;;;;;3.22;2.92;;;;;;;;;;4900748;29;20285;-84
2021/09/01 12:50:21;;;;;;;3.60;3.25;;;;;;;;;;4900624;29;20689;-84
2021/09/01 12:52:49;;;;;;;3.25;2.95;;;;;;;;;;4900940;29;20218;-85
2021/09/01 12:55:17;;;;;;;2.90;2.70;;;;;;;;;;4900696;29;20205;-85
2021/09/01 12:57:45;;;;;;;4.30;3.83;;;;;;;;;;4900352;29;20218;-84
2021/09/01 13:00:14;;;;;;;3.90;2.75;;;;;;;;;;4901309;29;20211;-85
2021/09/01 13:02:41;;;;;;;2.92;2.35;;;;;;;;;;4900071;29;20231;-84
2021/09/01 13:05:09;;;;;;;2.70;2.30;;;;;;;;;;4900411;29;20218;-85
2021/09/01 13:07:37;;;;;;;2.22;2.08;;;;;;;;;;4901320;29;20213;-84
2021/09/01 13:10:05;;;;;;;2.40;2.20;;;;;;;;;;4901563;29;20692;-84
2021/09/01 13:12:34;;;;;;;2.80;2.60;;;;;;;;;;4901053;29;20736;-85
2021/09/01 13:15:01;;;;;;;2.90;2.67;;;;;;;;;;4901196;29;20222;-84
2021/09/01 13:17:28;;;;;;;3.53;2.50;;;;;;;;;;4900608;29;20211;-85
2021/09/01 13:19:56;;;;;;;3.13;2.20;;;;;;;;;;4901030;29;20206;-84
2021/09/01 13:22:23;;;;;;;3.05;2.75;;;;;;;;;;4900329;29;20235;-85
2021/09/01 13:24:51;;;;;;;3.90;3.22;;;;;;;;;;4900563;29;20593;-85
2021/09/01 13:27:18;;;;;;;3.53;2.50;;;;;;;;;;4901101;29;20255;-84
2021/09/01 13:29:47;;;;;;;3.42;3.17;;;;;;;;;;4899898;29;20206;-84
2021/09/01 13:32:14;;;;;;;3.65;3.10;;;;;;;;;;4899740;29;20227;-85
2021/09/01 13:34:42;;;;;;;3.78;3.30;;;;;;;;;;4899891;29;20218;-85
2021/09/01 13:37:09;;;;;;;5.03;3.22;;;;;;;;;;4900242;29;20661;-85
2021/09/01 13:39:37;;;;;;;2.17;1.80;;;;;;;;;;4900451;29;20207;-84
2021/09/01 13:42:05;;;;;;;3.45;2.55;;;;;;;;;;4899595;29;20242;-84
2021/09/01 13:44:33;;;;;;;2.33;2.13;;;;;;;;;;4899688;29;20206;-83
2021/09/01 13:47:02;;;;;;;2.17;1.98;;;;;;;;;;4899386;29;20308;-84
2021/09/01 13:49:30;;;;;;;2.67;2.38;;;;;;;;;;4900291;29;20225;-84
2021/09/01 13:51:57;;;;;;;3.35;2.70;;;;;;;;;;4899166;29;20713;-84
2021/09/01 13:54:26;;;;;;;4.93;2.40;;;;;;;;;;4899339;29;20210;-84
2021/09/01 13:56:54;;;;;;;2.50;2.30;;;;;;;;;;4899380;29;20190;-84
2021/09/01 13:59:22;;;;;;;3.20;2.90;;;;;;;;;;4900162;29;20211;-84
2021/09/01 14:01:49;;;;;;;2.80;2.60;;;;;;;;;;4902587;29;20222;-83
2021/09/01 14:04:18;;;;;;;3.53;2.95;;;;;;;;;;4903589;29;20206;-84
2021/09/01 14:06:46;;;;;;;3.53;3.22;;;;;;;;;;4903607;29;20214;-84
2021/09/01 14:09:13;;;;;;;3.28;2.97;;;;;;;;;;4903555;29;20205;-84
2021/09/01 14:11:43;;;;;;;2.65;2.38;;;;;;;;;;4903492;29;20242;-82
2021/09/01 14:14:11;;;;;;;3.25;2.85;;;;;;;;;;4902128;29;20207;-84
2021/09/01 14:16:39;;;;;;;3.42;3.03;;;;;;;;;;4903028;29;20207;-84
2021/09/01 14:19:06;;;;;;;3.33;2.60;;;;;;;;;;4904148;29;20199;-84
2021/09/01 14:21:35;;;;;;;3.78;3.45;;;;;;;;;;4903423;29;20230;-83
2021/09/01 14:24:03;;;;;;;3.00;2.63;;;;;;;;;;4902718;29;20187;-83
2021/09/01 14:26:32;;;;;;;3.05;2.75;;;;;;;;;;4902717;29;20235;-84
2021/09/01 14:28:59;;;;;;;5.45;3.75;;;;;;;;;;4902478;29;20635;-84
2021/09/01 14:31:27;;;;;;;2.42;2.10;;;;;;;;;;4902771;29;20700;-84
2021/09/01 14:34:00;;;;;;;2.38;2.17;;;;;;;;;;4902770;29;20203;-86
2021/09/01 14:36:40;;;;;;;10.05;4.10;;;;;;;;;;4893429;29;20692;-86
2021/09/01 14:39:08;;;;;;;2.58;2.38;;;;;;;;;;4900859;29;20213;-85
2021/09/01 14:41:35;;;;;;;3.05;2.28;;;;;;;;;;4901334;29;20238;-85
2021/09/01 14:44:03;;;;;;;3.85;3.33;;;;;;;;;;4901227;29;20207;-85
2021/09/01 14:46:31;;;;;;;2.70;2.50;;;;;;;;;;4893288;29;20227;-85
2021/09/01 14:48:58;;;;;;;3.80;2.90;;;;;;;;;;4900750;29;20207;-85
2021/09/01 14:51:26;;;;;;;2.17;1.98;;;;;;;;;;4900113;29;20761;-85
2021/09/01 14:53:55;;;;;;;2.38;2.17;;;;;;;;;;4901536;29;20210;-85
2021/09/01 14:56:23;;;;;;;2.42;2.00;;;;;;;;;;4901127;29;20274;-85
2021/09/01 14:58:53;;;;;;;2.25;2.05;;;;;;;;;;4901121;29;20191;-86
2021/09/01 15:01:21;;;;;;;3.38;2.28;;;;;;;;;;4900879;29;20222;-86